sensor_id;sensor_type;location;lat;lon;timestamp;pressure;altitude;pressure_sealevel;temperature;humidity
65553;BME280;52465;51.560;14.368;2023-05-14T00:00:15;100714.00;;;17.72;55.63
65553;BME280;52465;51.560;14.368;2023-05-14T00:02:41;100706.69;;;17.74;55.64
65553;BME280;52465;51.560;14.368;2023-05-14T00:05:07;100698.03;;;17.65;55.80
65553;BME280;52465;51.560;14.368;2023-05-14T00:07:33;100680.63;;;17.56;55.72
65553;BME280;52465;51.560;14.368;2023-05-14T00:09:58;100699.84;;;17.65;55.64
65553;BME280;52465;51.560;14.368;2023-05-14T00:12:25;100701.75;;;17.71;55.76
65553;BME280;52465;51.560;14.368;2023-05-14T00:14:51;100700.91;;;17.70;55.67
65553;BME280;52465;51.560;14.368;2023-05-14T00:17:17;100704.59;;;17.69;56.02
65553;BME280;52465;51.560;14.368;2023-05-14T00:19:42;100695.63;;;17.70;55.90
65553;BME280;52465;51.560;14.368;2023-05-14T00:22:08;100685.41;;;17.67;55.82
65553;BME280;52465;51.560;14.368;2023-05-14T00:24:34;100676.22;;;17.63;55.71
65553;BME280;52465;51.560;14.368;2023-05-14T00:26:59;100683.78;;;17.66;55.80
65553;BME280;52465;51.560;14.368;2023-05-14T00:29:25;100667.41;;;17.56;55.98
65553;BME280;52465;51.560;14.368;2023-05-14T00:31:51;100678.69;;;17.65;55.96
65553;BME280;52465;51.560;14.368;2023-05-14T00:34:16;100674.41;;;17.64;55.75
65553;BME280;52465;51.560;14.368;2023-05-14T00:36:42;100671.50;;;17.59;56.01
65553;BME280;52465;51.560;14.368;2023-05-14T00:39:10;100678.88;;;17.63;55.53
65553;BME280;52465;51.560;14.368;2023-05-14T00:41:36;100679.69;;;17.64;55.79
65553;BME280;52465;51.560;14.368;2023-05-14T00:44:02;100673.94;;;17.60;55.79
65553;BME280;52465;51.560;14.368;2023-05-14T00:46:46;100675.59;;;17.61;55.82
65553;BME280;52465;51.560;14.368;2023-05-14T00:49:12;100659.84;;;17.53;56.08
65553;BME280;52465;51.560;14.368;2023-05-14T00:51:38;100671.09;;;17.62;55.86
65553;BME280;52465;51.560;14.368;2023-05-14T00:54:04;100673.13;;;17.60;55.84
65553;BME280;52465;51.560;14.368;2023-05-14T00:56:30;100673.72;;;17.55;55.79
65553;BME280;52465;51.560;14.368;2023-05-14T00:58:55;100681.28;;;17.58;56.21
65553;BME280;52465;51.560;14.368;2023-05-14T01:01:21;100668.81;;;17.52;56.14
65553;BME280;52465;51.560;14.368;2023-05-14T01:03:47;100683.94;;;17.58;55.82
65553;BME280;52465;51.560;14.368;2023-05-14T01:06:18;100678.84;;;17.57;55.93
65553;BME280;52465;51.560;14.368;2023-05-14T01:09:02;100678.00;;;17.56;56.04
65553;BME280;52465;51.560;14.368;2023-05-14T01:14:21;100677.38;;;17.54;56.01
65553;BME280;52465;51.560;14.368;2023-05-14T01:16:51;100682.47;;;17.56;56.03
65553;BME280;52465;51.560;14.368;2023-05-14T01:22:15;100674.09;;;17.52;56.23
65553;BME280;52465;51.560;14.368;2023-05-14T01:24:40;100647.50;;;17.39;55.76
65553;BME280;52465;51.560;14.368;2023-05-14T01:27:12;100653.81;;;17.38;56.10
65553;BME280;52465;51.560;14.368;2023-05-14T01:32:50;100665.53;;;17.50;56.03
65553;BME280;52465;51.560;14.368;2023-05-14T01:35:26;100663.88;;;17.49;56.01
65553;BME280;52465;51.560;14.368;2023-05-14T01:37:54;100672.66;;;17.50;56.08
65553;BME280;52465;51.560;14.368;2023-05-14T01:40:24;100661.44;;;17.48;56.13
65553;BME280;52465;51.560;14.368;2023-05-14T01:42:50;100648.72;;;17.36;56.03
65553;BME280;52465;51.560;14.368;2023-05-14T01:45:18;100651.41;;;17.43;56.18
65553;BME280;52465;51.560;14.368;2023-05-14T01:47:44;100658.34;;;17.44;56.01
65553;BME280;52465;51.560;14.368;2023-05-14T01:50:09;100638.25;;;17.28;56.25
65553;BME280;52465;51.560;14.368;2023-05-14T01:52:35;100651.19;;;17.38;56.20
65553;BME280;52465;51.560;14.368;2023-05-14T01:55:00;100666.28;;;17.44;56.20
65553;BME280;52465;51.560;14.368;2023-05-14T01:57:26;100644.06;;;17.38;56.09
65553;BME280;52465;51.560;14.368;2023-05-14T01:59:53;100641.97;;;17.34;56.10
65553;BME280;52465;51.560;14.368;2023-05-14T02:02:19;100631.34;;;17.27;56.21
65553;BME280;52465;51.560;14.368;2023-05-14T02:04:44;100624.41;;;17.26;56.33
65553;BME280;52465;51.560;14.368;2023-05-14T02:07:14;100644.06;;;17.38;56.30
65553;BME280;52465;51.560;14.368;2023-05-14T02:09:40;100646.53;;;17.40;56.28
65553;BME280;52465;51.560;14.368;2023-05-14T02:12:07;100646.28;;;17.35;56.20
65553;BME280;52465;51.560;14.368;2023-05-14T02:14:32;100643.22;;;17.38;56.15
65553;BME280;52465;51.560;14.368;2023-05-14T02:16:58;100641.34;;;17.32;56.13
65553;BME280;52465;51.560;14.368;2023-05-14T02:19:23;100641.97;;;17.34;56.20
65553;BME280;52465;51.560;14.368;2023-05-14T02:21:49;100650.56;;;17.36;56.29
65553;BME280;52465;51.560;14.368;2023-05-14T02:24:14;100637.06;;;17.31;56.34
65553;BME280;52465;51.560;14.368;2023-05-14T02:26:40;100632.34;;;17.26;56.17
65553;BME280;52465;51.560;14.368;2023-05-14T02:29:06;100630.97;;;17.30;56.04
65553;BME280;52465;51.560;14.368;2023-05-14T02:31:32;100640.34;;;17.33;56.32
65553;BME280;52465;51.560;14.368;2023-05-14T02:33:57;100630.09;;;17.23;56.20
65553;BME280;52465;51.560;14.368;2023-05-14T02:36:22;100632.97;;;17.28;56.26
65553;BME280;52465;51.560;14.368;2023-05-14T02:38:49;100626.19;;;17.19;56.43
65553;BME280;52465;51.560;14.368;2023-05-14T02:41:15;100634.44;;;17.31;56.28
65553;BME280;52465;51.560;14.368;2023-05-14T02:43:40;100645.22;;;17.29;56.46
65553;BME280;52465;51.560;14.368;2023-05-14T02:46:05;100633.56;;;17.24;56.16
65553;BME280;52465;51.560;14.368;2023-05-14T02:48:31;100610.28;;;17.12;56.46
65553;BME280;52465;51.560;14.368;2023-05-14T02:50:56;100622.34;;;17.22;56.39
65553;BME280;52465;51.560;14.368;2023-05-14T02:53:22;100627.88;;;17.27;56.32
65553;BME280;52465;51.560;14.368;2023-05-14T02:55:47;100640.28;;;17.26;56.49
65553;BME280;52465;51.560;14.368;2023-05-14T02:58:13;100623.34;;;17.21;56.35
65553;BME280;52465;51.560;14.368;2023-05-14T03:00:39;100637.84;;;17.25;56.50
65553;BME280;52465;51.560;14.368;2023-05-14T03:03:04;100624.72;;;17.16;56.47
65553;BME280;52465;51.560;14.368;2023-05-14T03:05:30;100554.00;;;16.76;56.51
65553;BME280;52465;51.560;14.368;2023-05-14T03:07:55;100627.00;;;17.19;56.53
65553;BME280;52465;51.560;14.368;2023-05-14T03:10:21;100620.66;;;17.14;56.59
65553;BME280;52465;51.560;14.368;2023-05-14T03:12:46;100603.91;;;17.07;56.50
65553;BME280;52465;51.560;14.368;2023-05-14T03:15:12;100626.00;;;17.21;56.52
65553;BME280;52465;51.560;14.368;2023-05-14T03:17:37;100630.47;;;17.20;56.57
65553;BME280;52465;51.560;14.368;2023-05-14T03:20:03;100625.75;;;17.15;56.64
65553;BME280;52465;51.560;14.368;2023-05-14T03:22:29;100630.69;;;17.18;56.47
65553;BME280;52465;51.560;14.368;2023-05-14T03:24:54;100618.81;;;17.14;56.37
65553;BME280;52465;51.560;14.368;2023-05-14T03:27:19;100632.50;;;17.18;56.57
65553;BME280;52465;51.560;14.368;2023-05-14T03:29:45;100616.19;;;17.14;56.41
65553;BME280;52465;51.560;14.368;2023-05-14T03:32:10;100625.94;;;17.14;56.45
65553;BME280;52465;51.560;14.368;2023-05-14T03:34:37;100609.56;;;17.04;56.51
65553;BME280;52465;51.560;14.368;2023-05-14T03:37:03;100620.66;;;17.14;56.56
65553;BME280;52465;51.560;14.368;2023-05-14T03:39:28;100625.13;;;17.13;56.48
65553;BME280;52465;51.560;14.368;2023-05-14T03:41:54;100619.19;;;17.11;56.58
65553;BME280;52465;51.560;14.368;2023-05-14T03:44:21;100610.94;;;17.00;56.59
65553;BME280;52465;51.560;14.368;2023-05-14T03:46:46;100614.66;;;17.05;56.63
65553;BME280;52465;51.560;14.368;2023-05-14T03:49:12;100611.03;;;17.06;56.75
65553;BME280;52465;51.560;14.368;2023-05-14T03:51:37;100619.59;;;17.08;56.64
65553;BME280;52465;51.560;14.368;2023-05-14T03:54:03;100612.28;;;17.10;56.72
65553;BME280;52465;51.560;14.368;2023-05-14T03:56:32;100615.94;;;17.09;56.64
65553;BME280;52465;51.560;14.368;2023-05-14T03:58:57;100616.94;;;17.08;56.82
65553;BME280;52465;51.560;14.368;2023-05-14T04:01:22;100608.75;;;17.03;56.72
65553;BME280;52465;51.560;14.368;2023-05-14T04:03:48;100612.47;;;17.09;56.61
65553;BME280;52465;51.560;14.368;2023-05-14T04:06:13;100596.16;;;17.05;56.56
65553;BME280;52465;51.560;14.368;2023-05-14T04:08:38;100597.56;;;17.01;56.92
65553;BME280;52465;51.560;14.368;2023-05-14T04:11:07;100603.09;;;17.06;56.43
65553;BME280;52465;51.560;14.368;2023-05-14T04:13:32;100605.75;;;17.06;56.81
65553;BME280;52465;51.560;14.368;2023-05-14T04:15:58;100593.50;;;17.05;56.75
65553;BME280;52465;51.560;14.368;2023-05-14T04:18:24;100599.19;;;17.02;56.76
65553;BME280;52465;51.560;14.368;2023-05-14T04:20:50;100600.81;;;17.03;56.60
65553;BME280;52465;51.560;14.368;2023-05-14T04:23:15;100610.38;;;17.04;56.67
65553;BME280;52465;51.560;14.368;2023-05-14T04:25:59;100609.78;;;17.02;56.68
65553;BME280;52465;51.560;14.368;2023-05-14T04:28:25;100597.31;;;16.96;56.75
65553;BME280;52465;51.560;14.368;2023-05-14T04:30:50;100600.78;;;16.97;56.71
65553;BME280;52465;51.560;14.368;2023-05-14T04:33:17;100613.44;;;17.01;56.85
65553;BME280;52465;51.560;14.368;2023-05-14T04:35:43;100592.53;;;16.85;56.56
65553;BME280;52465;51.560;14.368;2023-05-14T04:38:10;100617.25;;;16.99;56.70
65553;BME280;52465;51.560;14.368;2023-05-14T04:40:37;100616.63;;;16.97;56.77
65553;BME280;52465;51.560;14.368;2023-05-14T04:43:06;100615.44;;;16.99;56.83
65553;BME280;52465;51.560;14.368;2023-05-14T04:45:33;100612.16;;;16.97;56.42
65553;BME280;52465;51.560;14.368;2023-05-14T04:47:59;100611.97;;;16.99;56.50
65553;BME280;52465;51.560;14.368;2023-05-14T04:50:24;100610.13;;;16.99;56.63
65553;BME280;52465;51.560;14.368;2023-05-14T04:52:50;100610.34;;;16.98;56.77
65553;BME280;52465;51.560;14.368;2023-05-14T04:55:16;100615.63;;;16.98;57.00
65553;BME280;52465;51.560;14.368;2023-05-14T04:57:41;100611.16;;;16.98;56.79
65553;BME280;52465;51.560;14.368;2023-05-14T05:00:07;100603.41;;;16.97;56.81
65553;BME280;52465;51.560;14.368;2023-05-14T05:02:34;100602.75;;;16.95;56.88
65553;BME280;52465;51.560;14.368;2023-05-14T05:04:59;100599.69;;;16.91;56.86
65553;BME280;52465;51.560;14.368;2023-05-14T05:07:24;100596.84;;;16.92;56.65
65553;BME280;52465;51.560;14.368;2023-05-14T05:09:50;100608.06;;;16.95;56.81
65553;BME280;52465;51.560;14.368;2023-05-14T05:12:15;100584.41;;;16.86;56.63
65553;BME280;52465;51.560;14.368;2023-05-14T05:14:44;100608.06;;;16.95;56.73
65553;BME280;52465;51.560;14.368;2023-05-14T05:17:09;100596.03;;;16.92;56.78
65553;BME280;52465;51.560;14.368;2023-05-14T05:19:34;100599.31;;;16.94;56.93
65553;BME280;52465;51.560;14.368;2023-05-14T05:22:00;100597.25;;;16.89;56.63
65553;BME280;52465;51.560;14.368;2023-05-14T05:24:27;100594.41;;;16.91;56.71
65553;BME280;52465;51.560;14.368;2023-05-14T05:26:52;100601.34;;;16.92;56.80
65553;BME280;52465;51.560;14.368;2023-05-14T05:29:20;100588.47;;;16.89;56.68
65553;BME280;52465;51.560;14.368;2023-05-14T05:31:45;100594.22;;;16.92;56.89
65553;BME280;52465;51.560;14.368;2023-05-14T05:34:11;100569.50;;;16.79;56.67
65553;BME280;52465;51.560;14.368;2023-05-14T05:36:37;100589.50;;;16.88;57.02
65553;BME280;52465;51.560;14.368;2023-05-14T05:39:02;100580.47;;;16.82;56.96
65553;BME280;52465;51.560;14.368;2023-05-14T05:41:28;100592.59;;;16.91;56.80
65553;BME280;52465;51.560;14.368;2023-05-14T05:43:54;100581.94;;;16.85;56.82
65553;BME280;52465;51.560;14.368;2023-05-14T05:46:20;100583.84;;;16.91;56.73
65553;BME280;52465;51.560;14.368;2023-05-14T05:48:46;100583.00;;;16.90;56.89
65553;BME280;52465;51.560;14.368;2023-05-14T05:51:11;100588.31;;;16.90;56.97
65553;BME280;52465;51.560;14.368;2023-05-14T05:53:40;100587.03;;;16.86;56.97
65553;BME280;52465;51.560;14.368;2023-05-14T05:56:06;100593.75;;;16.89;56.86
65553;BME280;52465;51.560;14.368;2023-05-14T05:58:32;100578.66;;;16.83;56.90
65553;BME280;52465;51.560;14.368;2023-05-14T06:00:58;100580.94;;;16.86;56.81
65553;BME280;52465;51.560;14.368;2023-05-14T06:03:24;100580.53;;;16.89;56.87
65553;BME280;52465;51.560;14.368;2023-05-14T06:05:49;100568.22;;;16.75;56.84
65553;BME280;52465;51.560;14.368;2023-05-14T06:08:16;100580.94;;;16.86;56.92
65553;BME280;52465;51.560;14.368;2023-05-14T06:10:42;100587.84;;;16.87;57.01
65553;BME280;52465;51.560;14.368;2023-05-14T06:13:08;100584.59;;;16.85;56.97
65553;BME280;52465;51.560;14.368;2023-05-14T06:15:36;100588.88;;;16.86;56.96
65553;BME280;52465;51.560;14.368;2023-05-14T06:18:03;100559.75;;;16.64;56.90
65553;BME280;52465;51.560;14.368;2023-05-14T06:20:28;100582.56;;;16.87;56.92
65553;BME280;52465;51.560;14.368;2023-05-14T06:22:54;100594.78;;;16.88;56.91
65553;BME280;52465;51.560;14.368;2023-05-14T06:25:19;100592.31;;;16.86;56.86
65553;BME280;52465;51.560;14.368;2023-05-14T06:27:45;100582.97;;;16.84;56.92
65553;BME280;52465;51.560;14.368;2023-05-14T06:30:11;100582.97;;;16.84;57.13
65553;BME280;52465;51.560;14.368;2023-05-14T06:32:36;100583.78;;;16.84;56.85
65553;BME280;52465;51.560;14.368;2023-05-14T06:35:02;100568.03;;;16.76;56.97
65553;BME280;52465;51.560;14.368;2023-05-14T06:37:28;100578.66;;;16.83;57.03
65553;BME280;52465;51.560;14.368;2023-05-14T06:39:53;100565.13;;;16.71;56.98
65553;BME280;52465;51.560;14.368;2023-05-14T06:42:19;100592.31;;;16.86;57.09
65553;BME280;52465;51.560;14.368;2023-05-14T06:44:44;100577.22;;;16.80;57.14
65553;BME280;52465;51.560;14.368;2023-05-14T06:47:10;100550.28;;;16.55;56.95
65553;BME280;52465;51.560;14.368;2023-05-14T06:49:36;100573.38;;;16.83;56.96
65553;BME280;52465;51.560;14.368;2023-05-14T06:52:02;100572.38;;;16.84;56.95
65553;BME280;52465;51.560;14.368;2023-05-14T06:54:30;100582.56;;;16.87;56.94
65553;BME280;52465;51.560;14.368;2023-05-14T06:56:56;100561.56;;;16.79;57.03
65553;BME280;52465;51.560;14.368;2023-05-14T06:59:22;100570.34;;;16.86;56.79
65553;BME280;52465;51.560;14.368;2023-05-14T07:01:47;100581.38;;;16.89;56.93
65553;BME280;52465;51.560;14.368;2023-05-14T07:04:12;100563.25;;;16.86;56.96
65553;BME280;52465;51.560;14.368;2023-05-14T07:06:38;100573.25;;;16.91;56.70
65553;BME280;52465;51.560;14.368;2023-05-14T07:09:04;100574.06;;;16.91;56.82
65553;BME280;52465;51.560;14.368;2023-05-14T07:11:30;100544.22;;;16.76;56.67
65553;BME280;52465;51.560;14.368;2023-05-14T07:13:55;100555.56;;;16.91;56.63
65553;BME280;52465;51.560;14.368;2023-05-14T07:16:21;100533.03;;;16.74;56.55
65553;BME280;52465;51.560;14.368;2023-05-14T07:18:47;100555.34;;;16.93;56.79
65553;BME280;52465;51.560;14.368;2023-05-14T07:21:12;100552.09;;;16.91;56.69
65553;BME280;52465;51.560;14.368;2023-05-14T07:23:38;100546.00;;;16.90;56.33
65553;BME280;52465;51.560;14.368;2023-05-14T07:26:06;100549.69;;;16.96;56.56
65553;BME280;52465;51.560;14.368;2023-05-14T07:28:33;100539.69;;;16.91;56.36
65553;BME280;52465;51.560;14.368;2023-05-14T07:30:59;100514.78;;;16.79;56.36
65553;BME280;52465;51.560;14.368;2023-05-14T07:33:24;100534.41;;;16.91;56.36
65553;BME280;52465;51.560;14.368;2023-05-14T07:36:09;100533.03;;;16.96;56.29
65553;BME280;52465;51.560;14.368;2023-05-14T07:38:37;100529.34;;;16.97;56.24
65553;BME280;52465;51.560;14.368;2023-05-14T07:41:02;100528.16;;;16.99;56.15
65553;BME280;52465;51.560;14.368;2023-05-14T07:43:28;100527.53;;;16.97;56.28
65553;BME280;52465;51.560;14.368;2023-05-14T07:45:53;100511.03;;;16.95;56.38
65553;BME280;52465;51.560;14.368;2023-05-14T07:48:20;100521.63;;;16.95;56.30
65553;BME280;52465;51.560;14.368;2023-05-14T07:50:47;100495.31;;;16.87;56.08
65553;BME280;52465;51.560;14.368;2023-05-14T07:53:13;100508.63;;;17.00;56.11
65553;BME280;52465;51.560;14.368;2023-05-14T07:55:38;100514.75;;;17.01;56.16
65553;BME280;52465;51.560;14.368;2023-05-14T07:58:03;100514.75;;;17.01;56.16
65553;BME280;52465;51.560;14.368;2023-05-14T08:00:29;100508.81;;;16.99;56.12
65553;BME280;52465;51.560;14.368;2023-05-14T08:02:54;100498.22;;;16.99;56.09
65553;BME280;52465;51.560;14.368;2023-05-14T08:05:20;100500.47;;;16.95;56.06
65553;BME280;52465;51.560;14.368;2023-05-14T08:07:45;100501.53;;;17.01;55.96
65553;BME280;52465;51.560;14.368;2023-05-14T08:10:11;100494.41;;;17.01;55.95
65553;BME280;52465;51.560;14.368;2023-05-14T08:12:36;100506.03;;;17.07;56.01
65553;BME280;52465;51.560;14.368;2023-05-14T08:15:07;100509.50;;;17.07;56.01
65553;BME280;52465;51.560;14.368;2023-05-14T08:17:33;100498.09;;;17.07;55.88
65553;BME280;52465;51.560;14.368;2023-05-14T08:19:58;100499.34;;;17.11;55.72
65553;BME280;52465;51.560;14.368;2023-05-14T08:22:23;100466.91;;;16.96;55.70
65553;BME280;52465;51.560;14.368;2023-05-14T08:24:49;100493.06;;;17.12;55.84
65553;BME280;52465;51.560;14.368;2023-05-14T08:27:15;100463.03;;;16.98;55.56
65553;BME280;52465;51.560;14.368;2023-05-14T08:29:44;100485.69;;;17.07;55.72
65553;BME280;52465;51.560;14.368;2023-05-14T08:32:09;100483.66;;;17.09;55.75
65553;BME280;52465;51.560;14.368;2023-05-14T08:34:35;100489.00;;;17.16;55.67
65553;BME280;52465;51.560;14.368;2023-05-14T08:37:00;100483.91;;;17.14;55.61
65553;BME280;52465;51.560;14.368;2023-05-14T08:39:26;100482.50;;;17.18;55.62
65553;BME280;52465;51.560;14.368;2023-05-14T08:41:52;100486.53;;;17.14;55.81
65553;BME280;52465;51.560;14.368;2023-05-14T08:44:18;100491.06;;;17.21;55.40
65553;BME280;52465;51.560;14.368;2023-05-14T08:46:45;100482.91;;;17.22;55.34
65553;BME280;52465;51.560;14.368;2023-05-14T08:49:23;100480.69;;;17.19;55.51
65553;BME280;52465;51.560;14.368;2023-05-14T08:51:49;100463.97;;;17.12;55.34
65553;BME280;52465;51.560;14.368;2023-05-14T08:54:15;100473.38;;;17.28;55.43
65553;BME280;52465;51.560;14.368;2023-05-14T08:56:43;100474.59;;;17.25;55.47
65553;BME280;52465;51.560;14.368;2023-05-14T08:59:11;100461.72;;;17.15;55.50
65553;BME280;52465;51.560;14.368;2023-05-14T09:01:41;100475.88;;;17.29;55.42
65553;BME280;52465;51.560;14.368;2023-05-14T09:04:11;100469.94;;;17.27;55.18
65553;BME280;52465;51.560;14.368;2023-05-14T09:06:38;100452.38;;;17.19;55.29
65553;BME280;52465;51.560;14.368;2023-05-14T09:09:04;100475.47;;;17.32;55.29
65553;BME280;52465;51.560;14.368;2023-05-14T09:11:30;100461.59;;;17.24;54.85
65553;BME280;52465;51.560;14.368;2023-05-14T09:13:55;100466.06;;;17.23;55.32
65553;BME280;52465;51.560;14.368;2023-05-14T09:16:21;100465.66;;;17.26;55.41
65553;BME280;52465;51.560;14.368;2023-05-14T09:18:47;100451.41;;;17.27;55.16
65553;BME280;52465;51.560;14.368;2023-05-14T09:21:13;100454.50;;;17.31;55.05
65553;BME280;52465;51.560;14.368;2023-05-14T09:23:42;100446.75;;;17.29;55.03
65553;BME280;52465;51.560;14.368;2023-05-14T09:26:08;100454.94;;;17.34;55.19
65553;BME280;52465;51.560;14.368;2023-05-14T09:28:34;100449.44;;;17.36;55.12
65553;BME280;52465;51.560;14.368;2023-05-14T09:31:01;100458.19;;;17.36;55.06
65553;BME280;52465;51.560;14.368;2023-05-14T09:33:29;100456.59;;;17.42;55.14
65553;BME280;52465;51.560;14.368;2023-05-14T09:35:57;100451.91;;;17.44;54.82
65553;BME280;52465;51.560;14.368;2023-05-14T09:38:28;100447.25;;;17.46;55.01
65553;BME280;52465;51.560;14.368;2023-05-14T09:40:54;100427.47;;;17.42;54.91
65553;BME280;52465;51.560;14.368;2023-05-14T09:43:19;100452.53;;;17.46;54.77
65553;BME280;52465;51.560;14.368;2023-05-14T09:45:45;100438.69;;;17.51;54.96
65553;BME280;52465;51.560;14.368;2023-05-14T09:48:10;100430.53;;;17.45;54.99
65553;BME280;52465;51.560;14.368;2023-05-14T09:50:42;100415.63;;;17.38;54.71
65553;BME280;52465;51.560;14.368;2023-05-14T09:53:12;100425.44;;;17.51;54.87
65553;BME280;52465;51.560;14.368;2023-05-14T09:55:38;100426.91;;;17.53;54.93
65553;BME280;52465;51.560;14.368;2023-05-14T09:58:04;100419.78;;;17.54;54.87
65553;BME280;52465;51.560;14.368;2023-05-14T10:00:32;100399.97;;;17.43;54.86
65553;BME280;52465;51.560;14.368;2023-05-14T10:03:05;100406.34;;;17.55;54.91
65553;BME280;52465;51.560;14.368;2023-05-14T10:05:35;100412.88;;;17.59;54.86
65553;BME280;52465;51.560;14.368;2023-05-14T10:08:04;100402.88;;;17.61;54.71
65553;BME280;52465;51.560;14.368;2023-05-14T10:10:34;100407.00;;;17.64;54.74
65553;BME280;52465;51.560;14.368;2023-05-14T10:15:46;100400.06;;;17.69;54.60
65553;BME280;52465;51.560;14.368;2023-05-14T10:18:18;100377.06;;;17.63;54.43
65553;BME280;52465;51.560;14.368;2023-05-14T10:20:55;100387.44;;;17.71;54.49
65553;BME280;52465;51.560;14.368;2023-05-14T10:23:23;100364.63;;;17.64;54.47
65553;BME280;52465;51.560;14.368;2023-05-14T10:25:49;100374.81;;;17.67;54.18
65553;BME280;52465;51.560;14.368;2023-05-14T10:28:15;100368.94;;;17.78;54.60
65553;BME280;52465;51.560;14.368;2023-05-14T10:30:43;100360.78;;;17.73;54.45
65553;BME280;52465;51.560;14.368;2023-05-14T10:33:14;100375.47;;;17.82;54.35
65553;BME280;52465;51.560;14.368;2023-05-14T10:35:59;100364.88;;;17.82;54.34
65553;BME280;52465;51.560;14.368;2023-05-14T10:38:28;100364.69;;;17.84;54.45
65553;BME280;52465;51.560;14.368;2023-05-14T10:40:57;100365.31;;;17.86;54.35
65553;BME280;52465;51.560;14.368;2023-05-14T10:43:25;100367.97;;;17.86;54.47
65553;BME280;52465;51.560;14.368;2023-05-14T10:45:52;100360.03;;;17.86;54.38
65553;BME280;52465;51.560;14.368;2023-05-14T10:48:18;100356.72;;;17.84;54.51
65553;BME280;52465;51.560;14.368;2023-05-14T10:50:46;100358.38;;;17.85;54.51
65553;BME280;52465;51.560;14.368;2023-05-14T10:53:12;100357.56;;;17.84;54.66
65553;BME280;52465;51.560;14.368;2023-05-14T10:55:38;100357.38;;;17.79;54.59
65553;BME280;52465;51.560;14.368;2023-05-14T10:58:04;100358.38;;;17.85;54.51
65553;BME280;52465;51.560;14.368;2023-05-14T11:00:32;100352.47;;;17.83;54.38
65553;BME280;52465;51.560;14.368;2023-05-14T11:02:58;100326.53;;;17.71;54.36
65553;BME280;52465;51.560;14.368;2023-05-14T11:05:24;100347.81;;;17.85;54.43
65553;BME280;52465;51.560;14.368;2023-05-14T11:07:54;100346.34;;;17.82;54.53
65553;BME280;52465;51.560;14.368;2023-05-14T11:10:22;100341.47;;;17.79;54.52
65553;BME280;52465;51.560;14.368;2023-05-14T11:12:51;100352.88;;;17.86;54.41
65553;BME280;52465;51.560;14.368;2023-05-14T11:15:21;100349.44;;;17.86;54.45
65553;BME280;52465;51.560;14.368;2023-05-14T11:17:48;100349.44;;;17.86;54.59
65553;BME280;52465;51.560;14.368;2023-05-14T11:20:14;100349.00;;;17.89;54.55
65553;BME280;52465;51.560;14.368;2023-05-14T11:22:46;100347.97;;;17.90;54.55
65553;BME280;52465;51.560;14.368;2023-05-14T11:25:13;100332.31;;;17.82;54.63
65553;BME280;52465;51.560;14.368;2023-05-14T11:27:40;100334.34;;;17.80;54.27
65553;BME280;52465;51.560;14.368;2023-05-14T11:33:04;100341.47;;;17.92;54.55
65553;BME280;52465;51.560;14.368;2023-05-14T11:35:30;100339.84;;;17.91;54.57
65553;BME280;52465;51.560;14.368;2023-05-14T11:37:55;100332.31;;;17.88;54.41
65553;BME280;52465;51.560;14.368;2023-05-14T11:40:20;100324.97;;;17.84;54.64
65553;BME280;52465;51.560;14.368;2023-05-14T11:42:50;100340.66;;;17.92;54.63
65553;BME280;52465;51.560;14.368;2023-05-14T11:45:24;100322.31;;;17.84;54.59
65553;BME280;52465;51.560;14.368;2023-05-14T11:47:52;100330.47;;;17.89;54.74
65553;BME280;52465;51.560;14.368;2023-05-14T11:50:20;100335.38;;;17.92;54.68
65553;BME280;52465;51.560;14.368;2023-05-14T11:52:48;100298.91;;;17.74;54.71
65553;BME280;52465;51.560;14.368;2023-05-14T11:55:16;100316.19;;;17.83;54.91
65553;BME280;52465;51.560;14.368;2023-05-14T11:57:42;100333.13;;;17.89;54.84
65553;BME280;52465;51.560;14.368;2023-05-14T12:00:09;100330.69;;;17.94;54.99
65553;BME280;52465;51.560;14.368;2023-05-14T12:02:38;100302.78;;;17.85;55.16
65553;BME280;52465;51.560;14.368;2023-05-14T12:05:07;100316.19;;;17.90;54.56
65553;BME280;52465;51.560;14.368;2023-05-14T12:07:33;100310.91;;;17.90;54.91
65553;BME280;52465;51.560;14.368;2023-05-14T12:10:03;100292.78;;;17.80;54.64
65553;BME280;52465;51.560;14.368;2023-05-14T12:12:34;100311.09;;;17.95;54.74
65553;BME280;52465;51.560;14.368;2023-05-14T12:15:12;100319.69;;;17.97;54.60
65553;BME280;52465;51.560;14.368;2023-05-14T12:17:38;100294.84;;;17.85;54.85
65553;BME280;52465;51.560;14.368;2023-05-14T12:20:04;100312.13;;;18.01;54.69
65553;BME280;52465;51.560;14.368;2023-05-14T12:22:33;100310.13;;;17.96;54.81
65553;BME280;52465;51.560;14.368;2023-05-14T12:24:59;100311.94;;;18.02;54.78
65553;BME280;52465;51.560;14.368;2023-05-14T12:27:26;100309.09;;;18.04;54.76
65553;BME280;52465;51.560;14.368;2023-05-14T12:29:59;100299.31;;;17.97;54.70
65553;BME280;52465;51.560;14.368;2023-05-14T12:32:26;100299.69;;;18.01;54.72
65553;BME280;52465;51.560;14.368;2023-05-14T12:34:52;100294.00;;;18.04;54.53
65553;BME280;52465;51.560;14.368;2023-05-14T12:37:17;100306.44;;;18.10;54.53
65553;BME280;52465;51.560;14.368;2023-05-14T12:39:43;100292.59;;;18.08;54.69
65553;BME280;52465;51.560;14.368;2023-05-14T12:42:08;100287.69;;;18.05;54.57
65553;BME280;52465;51.560;14.368;2023-05-14T12:44:34;100297.47;;;18.11;54.53
65553;BME280;52465;51.560;14.368;2023-05-14T12:46:59;100300.53;;;18.15;54.61
65553;BME280;52465;51.560;14.368;2023-05-14T12:49:25;100301.72;;;18.12;54.56
65553;BME280;52465;51.560;14.368;2023-05-14T12:51:50;100299.91;;;18.06;54.45